ADDS METAR Data INFO
IDs: Format: Raw Decoded Include TAF

Data at: 1528 UTC 18 Jun 2018

KW63 181515Z AUTO 01005KT 4SM CLR 30/22 A3008 RMK AO1
KW63 181455Z AUTO 00000KT 7SM CLR 30/23 A3008 RMK AO1
KW63 181435Z AUTO 00000KT 10SM CLR 29/22 A3008 RMK AO1
KW63 181415Z AUTO 36003KT 7SM CLR 29/22 A3008 RMK AO1
KW63 181355Z AUTO 35003KT 10SM CLR 28/22 A3008 RMK AO1
KW63 181335Z AUTO 00000KT 7SM CLR 28/23 A3008 RMK AO1
KW63 181315Z AUTO 35004KT 10SM CLR 27/23 A3008 RMK AO1
KW63 181255Z AUTO 00000KT 10SM CLR 26/23 A3009 RMK AO1
KW63 181235Z AUTO 00000KT 10SM CLR 25/24 A3009 RMK AO1
KW63 181215Z AUTO 00000KT 10SM CLR 25/24 A3009 RMK AO1
KW63 181155Z AUTO 00000KT 10SM CLR 24/24 A3009 RMK AO1
KW63 181135Z AUTO 34003KT 10SM CLR 23/23 A3009 RMK AO1
KW63 181115Z AUTO 02007KT 10SM CLR 23/23 A3009 RMK AO1
KW63 181055Z AUTO 34004KT 10SM CLR 22/22 A3008 RMK AO1
KW63 181035Z AUTO 34003KT 10SM CLR 22/22 A3008 RMK AO1
KW63 181015Z AUTO 31003KT 10SM CLR 22/22 A3008 RMK AO1
KW63 180955Z AUTO 00000KT 10SM CLR 22/22 A3007 RMK AO1
KW63 180935Z AUTO 00000KT 10SM CLR 22/22 A3007 RMK AO1
KW63 180915Z AUTO 00000KT 10SM CLR 22/22 A3006 RMK AO1
KW63 180855Z AUTO 00000KT 5SM CLR 23/23 A3007 RMK AO1
KW63 180835Z AUTO 00000KT 1/4SM VV002 23/23 A3007 RMK AO1
KW63 180815Z AUTO 30003KT 10SM CLR 24/23 A3007 RMK AO1
KW63 180755Z AUTO 26003KT 10SM CLR 24/24 A3006 RMK AO1
KW63 180735Z AUTO 00000KT 10SM CLR 24/24 A3006 RMK AO1
KW63 180715Z AUTO 22004KT 10SM CLR 24/24 A3006 RMK AO1
KW63 180655Z AUTO 21006KT 10SM SCT070 SCT085 BKN120 24/24 A3007 RMK AO1
KW63 180635Z AUTO 21005KT 1/4SM OVC070 23/23 A3006 RMK AO1 VIS M1/4V5
KW63 180615Z AUTO 00000KT 1/2SM OVC070 25/24 A3006 RMK AO1
KW63 180555Z AUTO 03003KT 1SM BKN070 25/25 A3006 RMK AO1 VIS 1/2V2 1/2
KW63 180535Z AUTO 00000KT 1SM BKN070 OVC120 26/26 A3006 RMK AO1
KW63 180515Z AUTO 00000KT 2 1/2SM SCT070 SCT095 SCT120 24/24 A3006 RMK AO1
KW63 180455Z AUTO 00000KT 1/4SM OVC070 25/25 A3007 RMK AO1
KW63 180435Z AUTO 08003KT 1/2SM OVC070 26/25 A3007 RMK AO1 VIS 1/4V5
KW63 180415Z AUTO 00000KT 1/2SM BKN070 25/25 A3007 RMK AO1
KW63 180355Z AUTO 00000KT 1/4SM BKN075 BKN100 25/25 A3007 RMK AO1
KW63 180335Z AUTO 00000KT 1/2SM BKN075 BKN100 26/25 A3007 RMK AO1 VIS 1/4V5
KW63 180315Z AUTO 00000KT 1SM BKN075 25/25 A3007 RMK AO1
KW63 180255Z AUTO 00000KT 1/4SM VV002 27/24 A3007 RMK AO1
KW63 180235Z AUTO 11003KT M1/4SM VV000 26/24 A3007 RMK AO1
KW63 180215Z AUTO 00000KT 1/4SM VV002 27/24 A3007 RMK AO1
KW63 180155Z AUTO 00000KT 1/4SM VV002 27/25 A3007 RMK AO1
KW63 180135Z AUTO 00000KT 5SM CLR 26/26 A3006 RMK AO1
KW63 180115Z AUTO 00000KT 10SM CLR 26/25 A3004 RMK AO1
KW63 180055Z AUTO 00000KT 10SM CLR 26/25 A3004 RMK AO1
KW63 180035Z AUTO 00000KT 10SM CLR 28/25 A3004 RMK AO1
KW63 180015Z AUTO 00000KT 10SM CLR 29/23 A3004 RMK AO1
KW63 172355Z AUTO 00000KT 10SM CLR 30/23 A3004 RMK AO1
KW63 172335Z AUTO 00000KT 7SM CLR 32/22 A3004 RMK AO1
KW63 172315Z AUTO 00000KT 7SM CLR 32/22 A3004 RMK AO1
KW63 172255Z AUTO 00000KT 7SM CLR 32/22 A3004 RMK AO1
KW63 172235Z AUTO 00000KT 10SM SCT055 32/21 A3003 RMK AO1
KW63 172215Z AUTO 00000KT 10SM SCT055 32/21 A3003 RMK AO1
KW63 172155Z AUTO 00000KT 10SM SCT055 33/21 A3003 RMK AO1
KW63 172135Z AUTO 35004KT 10SM SCT065 33/21 A3004 RMK AO1
KW63 172115Z AUTO 00000KT 10SM CLR 33/21 A3004 RMK AO1
KW63 172055Z AUTO 00000KT 10SM SCT050 32/21 A3005 RMK AO1
KW63 172035Z AUTO 03003KT 10SM CLR 32/21 A3005 RMK AO1
KW63 172015Z AUTO 00000KT 10SM CLR 32/20 A3006 RMK AO1
KW63 171955Z AUTO 34003KT 10SM CLR 32/21 A3006 RMK AO1
KW63 171935Z AUTO 00000KT 10SM CLR 32/21 A3007 RMK AO1
KW63 171915Z AUTO 00000KT 10SM CLR 32/21 A3008 RMK AO1
KW63 171855Z AUTO 00000KT 10SM CLR 32/21 A3009 RMK AO1
KW63 171835Z AUTO 00000KT 10SM CLR 32/21 A3009 RMK AO1
KW63 171815Z AUTO 03003KT 10SM CLR 32/21 A3009 RMK AO1
KW63 171755Z AUTO 30003KT 10SM CLR 32/21 A3010 RMK AO1
KW63 171735Z AUTO 00000KT 10SM CLR 32/22 A3010 RMK AO1
KW63 171715Z AUTO 05003KT 10SM CLR 31/22 A3010 RMK AO1
KW63 171655Z AUTO 00000KT 10SM CLR 31/22 A3010 RMK AO1
KW63 171635Z AUTO 02004KT 10SM CLR 31/21 A3011 RMK AO1
KW63 171615Z AUTO 34006KT 10SM CLR 31/22 A3012 RMK AO1
KW63 171555Z AUTO 34004KT 10SM CLR 31/23 A3011 RMK AO1
KW63 171535Z AUTO 33004KT 10SM CLR 30/22 A3011 RMK AO1
KW63 171515Z AUTO 33005KT 10SM CLR 30/23 A3011 RMK AO1
KW63 171455Z AUTO 00000KT 10SM CLR 29/23 A3010 RMK AO1
KW63 171435Z AUTO 00000KT 10SM CLR 28/23 A3010 RMK AO1
KW63 171415Z AUTO 26004KT 10SM CLR 28/23 A3010 RMK AO1
KW63 171355Z AUTO 26005KT 10SM CLR 28/23 A3010 RMK AO1
KW63 171335Z AUTO 24004KT 10SM CLR 27/23 A3010 RMK AO1
KW63 171315Z AUTO 10SM CLR 26/23 A3009 RMK AO1
KW63 171255Z AUTO 24004KT 10SM CLR 25/23 A3009 RMK AO1
KW63 171235Z AUTO 24003KT 10SM CLR 25/23 A3008 RMK AO1
KW63 171215Z AUTO 10SM CLR 24/23 A3008 RMK AO1
KW63 171155Z AUTO 23003KT 10SM CLR 23/23 A3008 RMK AO1
KW63 171135Z AUTO 00000KT 10SM CLR 22/22 A3007 RMK AO1
KW63 171115Z AUTO 00000KT 10SM CLR 21/21 A3007 RMK AO1
KW63 171055Z AUTO 00000KT 7SM CLR 21/21 A3007 RMK AO1
KW63 171035Z AUTO 00000KT 7SM CLR 20/20 A3007 RMK AO1
KW63 171015Z AUTO 00000KT 7SM CLR 20/20 A3006 RMK AO1
KW63 170955Z AUTO 00000KT 7SM CLR 20/20 A3005 RMK AO1
KW63 170935Z AUTO 00000KT 7SM CLR 21/21 A3005 RMK AO1
KW63 170915Z AUTO 00000KT 10SM CLR 21/21 A3005 RMK AO1
KW63 170855Z AUTO 00000KT 10SM CLR 21/21 A3005 RMK AO1
KW63 170835Z AUTO 21003KT 10SM CLR 21/21 A3004 RMK AO1
KW63 170815Z AUTO 21003KT 10SM CLR 21/21 A3004 RMK AO1
KW63 170755Z AUTO 21003KT 10SM CLR 22/22 A3005 RMK AO1
KW63 170735Z AUTO 20003KT 7SM CLR 22/22 A3004 RMK AO1
KW63 170715Z AUTO 20004KT 10SM CLR 22/22 A3005 RMK AO1
KW63 170655Z AUTO 20005KT 10SM CLR 22/22 A3006 RMK AO1
KW63 170635Z AUTO 20004KT 10SM CLR 22/22 A3006 RMK AO1
KW63 170615Z AUTO 20005KT 10SM CLR 22/22 A3007 RMK AO1
KW63 170555Z AUTO 20004KT 10SM CLR 22/22 A3007 RMK AO1
KW63 170535Z AUTO 19004KT 5SM CLR 22/22 A3007 RMK AO1
KW63 170515Z AUTO 19003KT 7SM CLR 22/22 A3007 RMK AO1
KW63 170455Z AUTO 19003KT 10SM CLR 22/22 A3007 RMK AO1
KW63 170435Z AUTO 19004KT 5SM CLR 22/22 A3007 RMK AO1
KW63 170415Z AUTO 19003KT 5SM CLR 22/22 A3008 RMK AO1
KW63 170355Z AUTO 00000KT 7SM CLR 21/21 A3007 RMK AO1
KW63 170335Z AUTO 00000KT 3SM CLR 22/22 A3007 RMK AO1